createdAt,value
2023-10-10T00:00:50.522Z,12.05
2023-10-10T00:03:19.496Z,11.93
2023-10-10T00:05:46.306Z,11.00
2023-10-10T00:08:13.103Z,11.02
2023-10-10T00:10:52.465Z,9.50
2023-10-10T00:13:21.066Z,9.05
2023-10-10T00:16:06.473Z,10.80
2023-10-10T00:18:34.063Z,10.10
2023-10-10T00:21:10.539Z,10.50
2023-10-10T00:23:48.638Z,9.82
2023-10-10T00:26:24.708Z,10.52
2023-10-10T00:28:58.934Z,11.40
2023-10-10T00:31:29.902Z,11.18
2023-10-10T00:33:57.189Z,12.70
2023-10-10T00:36:34.756Z,12.15
2023-10-10T00:39:13.844Z,11.73
2023-10-10T00:41:50.398Z,11.85
2023-10-10T00:44:18.931Z,12.35
2023-10-10T00:46:57.261Z,13.00
2023-10-10T00:49:32.408Z,13.68
2023-10-10T00:52:07.975Z,13.27
2023-10-10T00:54:44.345Z,13.80
2023-10-10T00:57:20.922Z,13.07
2023-10-10T00:59:49.684Z,13.98
2023-10-10T01:02:22.175Z,13.63
2023-10-10T01:04:55.507Z,13.85
2023-10-10T01:07:24.159Z,14.40
2023-10-10T01:10:08.986Z,15.18
2023-10-10T01:12:40.403Z,14.95
2023-10-10T01:15:16.403Z,14.32
2023-10-10T01:17:46.149Z,14.10
2023-10-10T01:20:19.576Z,14.50
2023-10-10T01:22:49.370Z,14.55
2023-10-10T01:25:36.223Z,14.18
2023-10-10T01:28:24.720Z,15.63
2023-10-10T01:31:00.452Z,16.05
2023-10-10T01:33:38.481Z,15.95
2023-10-10T01:36:22.316Z,15.65
2023-10-10T01:39:00.412Z,16.17
2023-10-10T01:41:33.375Z,15.00
2023-10-10T01:44:19.165Z,14.57
2023-10-10T01:46:46.779Z,15.75
2023-10-10T01:49:31.565Z,14.00
2023-10-10T01:52:00.706Z,14.15
2023-10-10T01:54:41.303Z,14.55
2023-10-10T01:57:10.953Z,15.20
2023-10-10T01:59:39.637Z,13.75
2023-10-10T02:02:10.850Z,12.90
2023-10-10T02:04:37.886Z,12.98
2023-10-10T02:07:07.111Z,13.80
2023-10-10T02:09:41.244Z,12.85
2023-10-10T02:12:17.166Z,13.70
2023-10-10T02:14:44.406Z,13.38
2023-10-10T02:17:27.604Z,14.45
2023-10-10T02:19:58.983Z,14.43
2023-10-10T02:22:45.327Z,14.35
2023-10-10T02:25:38.119Z,13.45
2023-10-10T02:28:21.295Z,13.65
2023-10-10T02:30:53.356Z,14.88
2023-10-10T02:33:20.437Z,15.32
2023-10-10T02:35:58.466Z,14.38
2023-10-10T02:38:40.624Z,15.45
2023-10-10T02:41:22.532Z,17.30
2023-10-10T02:43:58.272Z,16.50
2023-10-10T02:46:37.034Z,16.02
2023-10-10T02:49:13.970Z,16.25
2023-10-10T02:51:45.060Z,16.52
2023-10-10T02:54:28.021Z,15.65
2023-10-10T02:57:26.504Z,15.93
2023-10-10T03:00:01.258Z,14.93
2023-10-10T03:02:41.840Z,15.80
2023-10-10T03:05:16.481Z,16.45
2023-10-10T03:07:52.195Z,16.52
2023-10-10T03:10:40.382Z,16.83
2023-10-10T03:13:34.616Z,16.98
2023-10-10T03:16:16.346Z,16.08
2023-10-10T03:18:55.453Z,16.15
2023-10-10T03:21:37.319Z,16.30
2023-10-10T03:24:23.023Z,16.58
2023-10-10T03:27:01.430Z,16.33
2023-10-10T03:29:48.257Z,15.90
2023-10-10T03:32:22.006Z,16.27
2023-10-10T03:35:04.913Z,16.27
2023-10-10T03:37:41.811Z,15.27
2023-10-10T03:40:28.433Z,15.23
2023-10-10T03:43:14.790Z,14.90
2023-10-10T03:46:01.296Z,13.75
2023-10-10T03:48:46.711Z,13.43
2023-10-10T03:51:32.143Z,14.25
2023-10-10T03:54:17.564Z,13.02
2023-10-10T03:57:02.859Z,11.65
2023-10-10T03:59:48.281Z,12.48
2023-10-10T04:02:50.364Z,11.98
2023-10-10T04:05:35.877Z,11.23
2023-10-10T04:08:21.589Z,11.93
2023-10-10T04:11:07.061Z,11.90
2023-10-10T04:13:52.340Z,12.00
2023-10-10T04:16:37.778Z,12.68
2023-10-10T04:19:23.077Z,11.77
2023-10-10T04:22:08.060Z,12.18
2023-10-10T04:24:53.402Z,12.77
2023-10-10T04:27:38.670Z,12.45
2023-10-10T04:30:24.486Z,13.20
2023-10-10T04:33:09.743Z,14.02
2023-10-10T04:35:55.037Z,13.60
2023-10-10T04:38:40.374Z,13.30
2023-10-10T04:41:32.112Z,13.88
2023-10-10T04:44:18.814Z,12.63
2023-10-10T04:47:04.701Z,13.38
2023-10-10T04:49:50.043Z,12.73
2023-10-10T04:52:35.334Z,12.90
2023-10-10T04:55:20.594Z,11.88
2023-10-10T04:58:06.032Z,13.05
2023-10-10T05:00:51.467Z,11.82
2023-10-10T05:03:36.748Z,12.95
2023-10-10T05:06:22.127Z,12.32
2023-10-10T05:09:07.336Z,12.55
2023-10-10T05:11:52.872Z,12.18
2023-10-10T05:14:38.276Z,11.70
2023-10-10T05:17:23.638Z,11.98
2023-10-10T05:20:09.105Z,10.98
2023-10-10T05:22:54.476Z,11.10
2023-10-10T05:25:24.533Z,11.48
2023-10-10T05:27:54.438Z,10.63
2023-10-10T05:30:24.873Z,10.98
2023-10-10T05:33:02.643Z,10.10
2023-10-10T05:35:48.845Z,10.68
2023-10-10T05:38:17.157Z,10.70
2023-10-10T05:40:44.643Z,10.73
2023-10-10T05:43:16.713Z,10.15
2023-10-10T05:45:45.114Z,10.80
2023-10-10T05:48:15.857Z,10.68
2023-10-10T05:50:43.783Z,9.75
2023-10-10T05:55:38.747Z,10.50
2023-10-10T06:00:40.726Z,10.57
2023-10-10T06:03:07.655Z,9.27
2023-10-10T06:05:35.385Z,11.53
2023-10-10T06:08:07.498Z,10.30
2023-10-10T06:10:34.684Z,10.38
2023-10-10T06:13:12.686Z,11.30
2023-10-10T06:15:40.276Z,11.90
2023-10-10T06:18:13.529Z,11.45
2023-10-10T06:20:58.571Z,11.15
2023-10-10T06:23:34.251Z,10.95
2023-10-10T06:26:01.313Z,10.88
2023-10-10T06:28:28.725Z,10.80
2023-10-10T06:30:55.879Z,10.60
2023-10-10T06:33:29.952Z,11.10
2023-10-10T06:36:08.377Z,10.45
2023-10-10T06:38:35.532Z,11.32
2023-10-10T06:41:12.298Z,11.00
2023-10-10T06:43:40.964Z,10.98
2023-10-10T06:46:18.198Z,10.35
2023-10-10T06:48:48.555Z,11.00
2023-10-10T06:51:16.929Z,11.00
2023-10-10T06:53:46.318Z,10.25
2023-10-10T06:56:38.631Z,10.57
2023-10-10T06:59:05.412Z,10.95
2023-10-10T07:01:32.227Z,11.18
2023-10-10T07:04:04.741Z,12.85
2023-10-10T07:06:31.570Z,10.50
2023-10-10T07:09:16.500Z,9.85
2023-10-10T07:11:43.810Z,10.20
2023-10-10T07:14:17.388Z,9.40
2023-10-10T07:16:44.714Z,10.45
2023-10-10T07:19:21.179Z,9.57
2023-10-10T07:21:49.116Z,9.43
2023-10-10T07:26:45.373Z,8.68
2023-10-10T07:29:42.787Z,8.80
2023-10-10T07:34:52.400Z,10.02
2023-10-10T07:37:20.070Z,8.63
2023-10-10T07:40:05.623Z,9.45
2023-10-10T07:42:32.457Z,8.70
2023-10-10T07:44:59.651Z,8.00
2023-10-10T07:47:28.625Z,8.45
2023-10-10T07:50:00.881Z,7.72
2023-10-10T07:52:27.849Z,8.48
2023-10-10T07:55:05.263Z,7.88
2023-10-10T07:57:51.916Z,7.18
2023-10-10T08:00:18.971Z,8.02
2023-10-10T08:02:51.195Z,7.45
2023-10-10T08:05:21.194Z,7.20
2023-10-10T08:07:48.778Z,7.10
2023-10-10T08:10:31.319Z,6.93
2023-10-10T08:12:58.945Z,9.60
2023-10-10T08:15:28.507Z,6.93
2023-10-10T08:17:56.752Z,7.82
2023-10-10T08:20:37.686Z,7.45
2023-10-10T08:23:05.398Z,6.32
2023-10-10T08:25:33.317Z,7.20
2023-10-10T08:30:28.410Z,6.03
2023-10-10T08:32:59.442Z,4.90
2023-10-10T08:35:31.396Z,6.32
2023-10-10T08:37:58.839Z,4.13
2023-10-10T08:40:35.219Z,6.27
2023-10-10T08:43:04.500Z,6.38
2023-10-10T08:45:41.462Z,5.35
2023-10-10T08:48:13.758Z,5.28
2023-10-10T08:50:42.116Z,5.90
2023-10-10T08:53:13.750Z,5.50
2023-10-10T08:55:41.928Z,6.25
2023-10-10T09:00:37.043Z,6.22
2023-10-10T09:03:04.766Z,5.57
2023-10-10T09:05:33.212Z,4.85
2023-10-10T09:08:18.160Z,6.18
2023-10-10T09:10:47.294Z,5.10
2023-10-10T09:13:14.952Z,5.57
2023-10-10T09:15:55.496Z,6.32
2023-10-10T09:18:24.158Z,5.65
2023-10-10T09:20:52.109Z,5.28
2023-10-10T09:23:26.884Z,5.90
2023-10-10T09:26:25.307Z,6.45
2023-10-10T09:29:04.456Z,5.45
2023-10-10T09:31:34.349Z,5.90
2023-10-10T09:34:05.007Z,5.97
2023-10-10T09:36:39.389Z,6.38
2023-10-10T09:39:11.052Z,6.18
2023-10-10T09:41:58.345Z,5.78
2023-10-10T09:44:52.751Z,6.07
2023-10-10T09:47:41.663Z,5.80
2023-10-10T09:50:24.187Z,5.70
2023-10-10T09:52:55.348Z,5.65
2023-10-10T09:55:25.822Z,5.07
2023-10-10T09:58:09.015Z,5.88
2023-10-10T10:00:43.478Z,6.40
2023-10-10T10:03:28.002Z,6.15
2023-10-10T10:06:22.684Z,6.53
2023-10-10T10:09:10.528Z,4.97
2023-10-10T10:11:53.560Z,5.95
2023-10-10T10:14:29.740Z,6.57
2023-10-10T10:17:19.854Z,6.28
2023-10-10T10:19:49.112Z,6.05
2023-10-10T10:22:22.575Z,5.80
2023-10-10T10:24:49.501Z,6.05
2023-10-10T10:27:25.935Z,6.38
2023-10-10T10:30:20.150Z,5.90
2023-10-10T10:32:48.284Z,6.03
2023-10-10T10:35:47.774Z,5.80
2023-10-10T10:38:18.364Z,6.30
2023-10-10T10:40:49.703Z,6.35
2023-10-10T10:43:22.947Z,6.43
2023-10-10T10:45:54.396Z,5.38
2023-10-10T10:48:31.157Z,5.50
2023-10-10T10:51:03.202Z,5.32
2023-10-10T10:53:39.650Z,4.85
2023-10-10T10:56:18.827Z,5.57
2023-10-10T10:58:55.080Z,7.00
2023-10-10T11:01:27.974Z,4.82
2023-10-10T11:03:56.514Z,4.93
2023-10-10T11:06:30.034Z,4.82
2023-10-10T11:09:10.776Z,5.18
2023-10-10T11:11:41.929Z,4.20
2023-10-10T11:14:19.887Z,5.50
2023-10-10T11:16:47.745Z,3.92
2023-10-10T11:19:20.117Z,4.40
2023-10-10T11:21:50.183Z,3.75
2023-10-10T11:24:27.651Z,3.50
2023-10-10T11:27:12.515Z,4.13
2023-10-10T11:29:46.511Z,4.25
2023-10-10T11:32:37.547Z,3.53
2023-10-10T11:35:17.080Z,3.03
2023-10-10T11:38:00.980Z,3.17
2023-10-10T11:40:32.342Z,3.83
2023-10-10T11:43:07.492Z,2.65
2023-10-10T11:45:42.951Z,2.15
2023-10-10T11:48:17.359Z,2.85
2023-10-10T11:50:58.260Z,2.85
2023-10-10T11:53:26.721Z,3.13
2023-10-10T11:56:02.683Z,2.05
2023-10-10T11:58:38.612Z,2.60
2023-10-10T12:01:09.541Z,2.80
2023-10-10T12:03:39.822Z,2.90
2023-10-10T12:06:09.344Z,2.20
2023-10-10T12:08:38.450Z,2.03
2023-10-10T12:11:13.536Z,2.85
2023-10-10T12:13:40.500Z,2.03
2023-10-10T12:16:14.011Z,2.23
2023-10-10T12:18:45.687Z,2.35
2023-10-10T12:21:20.475Z,2.67
2023-10-10T12:23:55.225Z,2.80
2023-10-10T12:26:24.710Z,2.77
2023-10-10T12:31:23.032Z,2.35
2023-10-10T12:33:50.759Z,3.13
2023-10-10T12:36:18.112Z,4.65
2023-10-10T12:38:46.207Z,1.90
2023-10-10T12:41:13.208Z,2.70
2023-10-10T12:43:41.301Z,2.70
2023-10-10T12:46:08.864Z,2.45
2023-10-10T12:48:41.440Z,2.47
2023-10-10T12:51:11.807Z,2.33
2023-10-10T12:53:44.372Z,2.20
2023-10-10T12:56:18.741Z,2.67
2023-10-10T12:58:53.244Z,2.70
2023-10-10T13:01:24.663Z,2.53
2023-10-10T13:03:52.385Z,2.25
2023-10-10T13:06:23.698Z,2.30
2023-10-10T13:09:04.546Z,2.60
2023-10-10T13:11:34.128Z,2.22
2023-10-10T13:14:10.401Z,3.20
2023-10-10T13:16:44.071Z,1.90
2023-10-10T13:19:13.034Z,2.42
2023-10-10T13:21:41.759Z,2.70
2023-10-10T13:24:13.300Z,2.38
2023-10-10T13:26:41.367Z,1.88
2023-10-10T13:29:09.009Z,2.47
2023-10-10T13:31:36.453Z,2.90
2023-10-10T13:36:33.538Z,2.47
2023-10-10T13:39:06.591Z,2.60
2023-10-10T13:41:37.297Z,2.50
2023-10-10T13:44:05.213Z,2.95
2023-10-10T13:46:37.045Z,2.83
2023-10-10T13:49:10.464Z,2.42
2023-10-10T13:51:43.122Z,3.13
2023-10-10T13:54:09.928Z,3.30
2023-10-10T13:56:36.712Z,2.28
2023-10-10T13:59:03.845Z,2.85
2023-10-10T14:01:30.819Z,2.65
2023-10-10T14:04:15.057Z,2.60
2023-10-10T14:06:49.252Z,2.50
2023-10-10T14:09:23.458Z,2.70
2023-10-10T14:11:58.550Z,2.63
2023-10-10T14:14:25.474Z,3.00
2023-10-10T14:16:56.367Z,2.63
2023-10-10T14:19:26.101Z,2.72
2023-10-10T14:21:54.610Z,3.05
2023-10-10T14:24:22.037Z,2.92
2023-10-10T14:29:17.691Z,2.80
2023-10-10T14:31:46.281Z,2.75
2023-10-10T14:34:31.735Z,2.80
2023-10-10T14:36:58.513Z,2.17
2023-10-10T14:39:37.545Z,2.53
2023-10-10T14:42:04.957Z,2.70
2023-10-10T14:44:32.943Z,2.67
2023-10-10T14:47:04.188Z,2.65
2023-10-10T14:49:31.146Z,1.90
2023-10-10T14:52:04.681Z,2.90
2023-10-10T14:54:38.630Z,2.67
2023-10-10T14:57:06.234Z,2.97
2023-10-10T15:04:34.699Z,2.40
2023-10-10T15:07:01.844Z,2.13
2023-10-10T15:09:28.687Z,2.40
2023-10-10T15:12:08.318Z,2.45
2023-10-10T15:14:35.119Z,2.20
2023-10-10T15:17:06.242Z,2.58
2023-10-10T15:19:33.605Z,2.03
2023-10-10T15:22:00.733Z,2.63
2023-10-10T15:24:29.827Z,2.65
2023-10-10T15:26:57.352Z,2.30
2023-10-10T15:29:24.335Z,2.38
2023-10-10T15:31:55.569Z,2.38
2023-10-10T15:34:22.423Z,2.47
2023-10-10T15:36:49.924Z,2.90
2023-10-10T15:44:13.965Z,2.72
2023-10-10T15:46:44.711Z,2.80
2023-10-10T15:49:29.110Z,2.78
2023-10-10T15:52:05.931Z,2.50
2023-10-10T15:54:35.737Z,4.75
2023-10-10T15:57:08.570Z,11.02
2023-10-10T15:59:36.937Z,2.72
2023-10-10T16:02:09.563Z,2.80
2023-10-10T16:04:37.686Z,2.50
2023-10-10T16:07:06.095Z,2.40
2023-10-10T16:09:32.860Z,2.40
2023-10-10T16:11:59.835Z,2.50
2023-10-10T16:14:26.925Z,2.83
2023-10-10T16:16:54.202Z,3.03
2023-10-10T16:19:26.834Z,2.58
2023-10-10T16:21:56.099Z,2.85
2023-10-10T16:24:28.700Z,3.20
2023-10-10T16:27:03.715Z,2.72
2023-10-10T16:29:36.805Z,2.88
2023-10-10T16:32:09.532Z,3.05
2023-10-10T16:34:43.492Z,3.05
2023-10-10T16:37:14.813Z,3.10
2023-10-10T16:39:45.811Z,2.92
2023-10-10T16:42:13.695Z,2.75
2023-10-10T16:44:40.561Z,2.95
2023-10-10T16:47:07.365Z,3.50
2023-10-10T16:49:38.314Z,2.45
2023-10-10T16:52:07.153Z,3.00
2023-10-10T16:54:34.854Z,2.90
2023-10-10T16:57:01.816Z,2.70
2023-10-10T16:59:31.551Z,3.35
2023-10-10T17:01:58.419Z,2.22
2023-10-10T17:04:26.004Z,2.40
2023-10-10T17:09:19.501Z,1.90
2023-10-10T17:11:51.661Z,2.67
2023-10-10T17:14:22.216Z,3.95
2023-10-10T17:16:49.213Z,3.20
2023-10-10T17:19:19.765Z,4.10
2023-10-10T17:21:49.482Z,3.10
2023-10-10T17:24:22.602Z,7.03
2023-10-10T17:26:49.460Z,2.67
2023-10-10T17:29:16.682Z,2.90
2023-10-10T17:31:43.837Z,3.00
2023-10-10T17:34:16.448Z,2.97
2023-10-10T17:36:43.614Z,2.63
2023-10-10T17:39:10.624Z,2.38
2023-10-10T17:41:37.411Z,2.40
2023-10-10T17:44:10.087Z,2.20
2023-10-10T17:46:39.024Z,2.30
2023-10-10T17:49:06.705Z,2.80
2023-10-10T17:51:35.236Z,2.20
2023-10-10T17:54:02.541Z,2.45
2023-10-10T17:56:29.708Z,2.30
2023-10-10T17:58:56.576Z,2.47
2023-10-10T18:01:23.708Z,2.10
2023-10-10T18:03:55.427Z,2.65
2023-10-10T18:06:24.530Z,2.90
2023-10-10T18:09:01.865Z,2.45
2023-10-10T18:11:33.240Z,2.45
2023-10-10T18:14:00.187Z,2.72
2023-10-10T18:16:26.926Z,2.17
2023-10-10T18:18:54.049Z,2.80
2023-10-10T18:21:24.004Z,2.85
2023-10-10T18:23:50.808Z,2.42
2023-10-10T18:26:21.746Z,2.33
2023-10-10T18:28:51.269Z,2.45
2023-10-10T18:31:40.458Z,2.63
2023-10-10T18:34:07.882Z,2.90
2023-10-10T18:36:37.905Z,2.75
2023-10-10T18:39:12.923Z,2.40
2023-10-10T18:41:43.901Z,2.08
2023-10-10T18:44:11.951Z,2.85
2023-10-10T18:49:06.836Z,2.50
2023-10-10T18:51:33.865Z,2.97
2023-10-10T18:54:00.865Z,2.80
2023-10-10T18:56:27.660Z,1.88
2023-10-10T18:58:54.431Z,2.27
2023-10-10T19:01:23.175Z,2.28
2023-10-10T19:03:50.552Z,2.92
2023-10-10T19:06:21.516Z,1.83
2023-10-10T19:08:49.436Z,2.47
2023-10-10T19:11:24.548Z,2.75
2023-10-10T19:13:51.520Z,2.60
2023-10-10T19:16:18.900Z,3.40
2023-10-10T19:18:46.479Z,3.00
2023-10-10T19:21:17.990Z,3.40
2023-10-10T19:23:50.565Z,2.90
2023-10-10T19:26:18.215Z,1.88
2023-10-10T19:28:46.659Z,2.55
2023-10-10T19:31:15.677Z,2.80
2023-10-10T19:33:42.854Z,2.15
2023-10-10T19:36:09.875Z,2.20
2023-10-10T19:38:36.768Z,3.10
2023-10-10T19:41:10.272Z,1.90
2023-10-10T19:43:38.221Z,2.28
2023-10-10T19:46:11.485Z,2.60
2023-10-10T19:48:41.997Z,2.97
2023-10-10T19:51:20.157Z,2.70
2023-10-10T19:53:50.575Z,3.17
2023-10-10T19:56:18.208Z,3.13
2023-10-10T19:58:47.083Z,3.53
2023-10-10T20:01:14.555Z,2.85
2023-10-10T20:03:43.505Z,3.10
2023-10-10T20:06:21.400Z,3.25
2023-10-10T20:08:55.249Z,3.05
2023-10-10T20:11:25.307Z,2.65
2023-10-10T20:13:52.820Z,3.03
2023-10-10T20:16:21.770Z,2.42
2023-10-10T20:18:48.895Z,2.47
2023-10-10T20:21:17.424Z,2.90
2023-10-10T20:23:44.939Z,3.25
2023-10-10T20:26:18.431Z,2.42
2023-10-10T20:28:47.771Z,2.70
2023-10-10T20:31:14.913Z,3.08
2023-10-10T20:33:42.525Z,2.65
2023-10-10T20:38:43.782Z,3.40
2023-10-10T20:41:12.396Z,3.20
2023-10-10T20:43:41.020Z,3.50
2023-10-10T20:46:07.943Z,5.50
2023-10-10T20:48:35.000Z,3.30
2023-10-10T20:51:05.335Z,3.58
2023-10-10T20:53:32.623Z,3.42
2023-10-10T20:55:59.633Z,3.28
2023-10-10T20:58:26.409Z,3.83
2023-10-10T21:00:53.227Z,3.70
2023-10-10T21:03:20.228Z,4.28
2023-10-10T21:05:48.725Z,4.05
2023-10-10T21:08:18.578Z,3.30
2023-10-10T21:10:45.777Z,3.25
2023-10-10T21:13:14.285Z,3.90
2023-10-10T21:15:42.323Z,3.38
2023-10-10T21:18:09.813Z,3.67
2023-10-10T21:20:51.934Z,3.20
2023-10-10T21:23:26.362Z,2.80
2023-10-10T21:25:54.398Z,3.28
2023-10-10T21:28:23.301Z,3.55
2023-10-10T21:30:50.097Z,3.55
2023-10-10T21:33:17.031Z,3.80
2023-10-10T21:35:45.535Z,3.57
2023-10-10T21:38:12.535Z,2.58
2023-10-10T21:40:41.255Z,3.90
2023-10-10T21:43:09.372Z,4.00
2023-10-10T21:45:38.068Z,3.72
2023-10-10T21:48:06.098Z,4.00
2023-10-10T21:50:33.458Z,4.32
2023-10-10T21:53:01.330Z,3.85
2023-10-10T21:55:29.217Z,3.92
2023-10-10T21:57:56.914Z,3.58
2023-10-10T22:00:30.946Z,3.55
2023-10-10T22:02:58.807Z,2.85
2023-10-10T22:07:52.270Z,3.30
2023-10-10T22:10:24.124Z,3.22
2023-10-10T22:12:55.778Z,3.15
2023-10-10T22:15:26.243Z,3.85
2023-10-10T22:17:56.007Z,3.63
2023-10-10T22:20:24.244Z,2.45
2023-10-10T22:22:51.987Z,3.28
2023-10-10T22:25:22.995Z,3.65
2023-10-10T22:27:52.529Z,3.25
2023-10-10T22:30:26.369Z,6.32
2023-10-10T22:32:55.261Z,3.70
2023-10-10T22:35:23.135Z,3.70
2023-10-10T22:40:18.726Z,3.05
2023-10-10T22:42:45.569Z,3.65
2023-10-10T22:45:12.465Z,3.53
2023-10-10T22:47:39.626Z,3.50
2023-10-10T22:50:08.522Z,3.20
2023-10-10T22:52:38.990Z,3.20
2023-10-10T22:55:11.237Z,3.20
2023-10-10T22:57:38.227Z,2.92
2023-10-10T23:00:13.061Z,3.13
2023-10-10T23:02:45.583Z,3.58
2023-10-10T23:05:15.267Z,3.08
2023-10-10T23:07:43.095Z,3.20
2023-10-10T23:10:21.608Z,3.45
2023-10-10T23:12:52.688Z,3.25
2023-10-10T23:15:27.537Z,3.50
2023-10-10T23:17:59.250Z,3.05
2023-10-10T23:20:28.868Z,2.90
2023-10-10T23:22:57.757Z,3.42
2023-10-10T23:25:27.019Z,3.17
2023-10-10T23:27:57.938Z,3.30
2023-10-10T23:30:31.209Z,3.22
2023-10-10T23:33:00.277Z,3.25
2023-10-10T23:35:28.586Z,2.97
2023-10-10T23:45:24.008Z,1.70
2023-10-10T23:47:58.108Z,3.08
2023-10-10T23:50:27.771Z,3.75
2023-10-10T23:52:56.797Z,3.50
2023-10-10T23:55:30.307Z,3.17
2023-10-10T23:58:01.433Z,2.88
